SUMU/MVD METAR and TAF weather

Enter ICAO airport designator
Station Type Date Time Source
SUMU METAR 2021/02/27 03:00 UTC NOAA

SUMU 270300Z 08007KT CAVOK 21/16 Q1019 NOSIG


Station Type Date Time Source
SUMU Decoded METAR 2021/02/27 03:00 UTC NOAA

Carrasco, Uruguay (SUMU) 34-50S 056-00W 32M
Feb 26, 2021 - 10:00 PM EST / 2021.02.27 0300 UTC
Wind: from the E (080 degrees) at 8 MPH (7 KT):0
Visibility: greater than 7 mile(s):0
Temperature: 69 F (21 C)
Dew Point: 60 F (16 C)
Relative Humidity: 73%
Pressure (altimeter): 30.09 in. Hg (1019 hPa)
ob: SUMU 270300Z 08007KT CAVOK 21/16 Q1019 NOSIG
cycle: 3

Station Type Date Time Source
SUMU TAF 2021/02/27 00:00 UTC NOAA

TAF SUMU 262330Z 2700/2724 11013KT 9999 FEW033 TX29/2718Z TN19/2709Z
BECMG 2701/2704 04010KT CAVOK

Example: see airport list